Pagrindinis puslapis
METAR-TAF:

METAR-TAF

Oro uostai :

Kordoba, Argentina

platuma: 31-19S, ilguma: 064-13W, Aukštis: 484 m

Dabartinis oras

Ataskaita buvo paskelbta 1 valandą ir 21 minutes, ne 23:00 UTC
Vėjas 2 kt iš Šiaurės
Temperatūra 5°C
Drėgmė 52%
Slėgis 1019 hPa
Matomumas 10 km arba daugiau
nėra debesų žemiau 1500 m ir nėra kamuolinių lietaus debesų

METAR: SACO 022300Z 01002KT CAVOK 05/M04 Q1019 NOSIG RMK PP000

Laikas: 21:21 (00:21 UTC)

Prognozė

Ataskaita buvo paskelbta 1 valandą ir 21 minutes, ne 23:00 UTC
Prognozė galioja nuo 03 metu 00 UTC su 03 metu 24 UTC
Vėjas 5 kt iš Šiaurės
Matomumas 10 km arba daugiau
nėra debesų žemiau 1500 m ir nėra kamuolinių lietaus debesų
Tapsmas
nuo 03 metu 12 UTC su 03 metu 15 UTC
Vėjas 10 kt iš Šiaurės Rytų

TAF: SACO 022300Z 0300/0324 36005KT CAVOK TX17/0318Z TN03/0310Z BECMG 0312/0315 05010KT

Orai ataskaitas ir orų prognozės (METAR, TAF).

turimą stotys yra geltonos ir raudonos taškus žemėlapyje.

Perkelti pele per norėdami pamatyti stoties vardą.

Tada spustelėkite, norėdami matyti oro stebėjimo ir prognozės.

Norėdami pakeisti žemėlapį: spustelėkite ant žalios mygtukų su juodo kryžiaus žemyn,; žalią mygtuką su brūkšneliu, jei norite nutolinti; arba žalių rodyklių gretimoms žemėlapius.


METAR-TAF: